Terminal Aerodrome Forecast
Issued by NWS

Home | Current Version | Previous Version | Text Only | Print | Product List | Glossary On
Versions: 1 2 3 4 5 6 7 8 9 10 11 12 13 14 15 16 17 18 19 20 21 22 23 24 25 26 27 28 29 30 31 32
000
FTUS43 KLOT 261500 AAA
TAFMDW
TAF AMD
KMDW 261500Z 2615/2712 20016G25KT P6SM BKN060
     FM261730 23021G36KT P6SM FEW060
     FM262300 22014G23KT P6SM FEW060
     FM270100 21009KT P6SM BKN060=

USA.gov is the U.S. government's official web portal to all federal, state and local government web resources and services.